sensor_id;sensor_type;location;lat;lon;timestamp;pressure;altitude;pressure_sealevel;temperature;humidity
23339;BME280;11841;49.368;20.962;2022-10-13T00:01:25;96650.25;;;3.00;83.66
23339;BME280;11841;49.368;20.962;2022-10-13T00:03:52;96651.91;;;3.01;83.53
23339;BME280;11841;49.368;20.962;2022-10-13T00:06:19;96652.88;;;3.00;83.73
23339;BME280;11841;49.368;20.962;2022-10-13T00:08:47;96653.84;;;2.99;83.56
23339;BME280;11841;49.368;20.962;2022-10-13T00:11:17;96651.50;;;2.96;83.46
23339;BME280;11841;49.368;20.962;2022-10-13T00:13:44;96649.19;;;2.93;83.77
23339;BME280;11841;49.368;20.962;2022-10-13T00:16:11;96640.13;;;2.87;84.03
23339;BME280;11841;49.368;20.962;2022-10-13T00:18:39;96640.41;;;2.84;83.60
23339;BME280;11841;49.368;20.962;2022-10-13T00:21:07;96638.94;;;2.82;83.84
23339;BME280;11841;49.368;20.962;2022-10-13T00:23:34;96639.22;;;2.79;83.55
23339;BME280;11841;49.368;20.962;2022-10-13T00:26:01;96637.56;;;2.78;84.01
23339;BME280;11841;49.368;20.962;2022-10-13T00:28:28;96634.41;;;2.74;83.77
23339;BME280;11841;49.368;20.962;2022-10-13T00:30:55;96630.28;;;2.72;84.22
23339;BME280;11841;49.368;20.962;2022-10-13T00:33:21;96642.72;;;2.70;84.36
23339;BME280;11841;49.368;20.962;2022-10-13T00:35:48;96637.34;;;2.71;83.73
23339;BME280;11841;49.368;20.962;2022-10-13T00:38:15;96637.19;;;2.73;83.51
23339;BME280;11841;49.368;20.962;2022-10-13T00:40:48;96630.00;;;2.75;83.57
23339;BME280;11841;49.368;20.962;2022-10-13T00:43:20;96627.66;;;2.72;83.85
23339;BME280;11841;49.368;20.962;2022-10-13T00:45:46;96625.34;;;2.69;83.99
23339;BME280;11841;49.368;20.962;2022-10-13T00:48:19;96630.88;;;2.66;83.64
23339;BME280;11841;49.368;20.962;2022-10-13T00:50:47;96622.63;;;2.61;83.72
23339;BME280;11841;49.368;20.962;2022-10-13T00:53:14;96617.41;;;2.61;83.58
23339;BME280;11841;49.368;20.962;2022-10-13T00:55:41;96624.28;;;2.62;84.15
23339;BME280;11841;49.368;20.962;2022-10-13T00:58:09;96622.34;;;2.64;83.98
23339;BME280;11841;49.368;20.962;2022-10-13T01:00:37;96619.72;;;2.64;83.22
23339;BME280;11841;49.368;20.962;2022-10-13T01:03:04;96625.41;;;2.59;83.93
23339;BME280;11841;49.368;20.962;2022-10-13T01:05:30;96616.34;;;2.54;84.12
23339;BME280;11841;49.368;20.962;2022-10-13T01:07:56;96619.63;;;2.56;84.05
23339;BME280;11841;49.368;20.962;2022-10-13T01:12:59;96611.47;;;2.59;83.85
23339;BME280;11841;49.368;20.962;2022-10-13T01:15:33;96614.41;;;2.56;83.82
23339;BME280;11841;49.368;20.962;2022-10-13T01:26:16;96610.03;;;2.46;83.26
23339;BME280;11841;49.368;20.962;2022-10-13T01:31:26;96618.63;;;2.39;83.61
23339;BME280;11841;49.368;20.962;2022-10-13T01:33:56;96614.47;;;2.36;83.47
23339;BME280;11841;49.368;20.962;2022-10-13T01:38:54;96610.63;;;2.31;83.50
23339;BME280;11841;49.368;20.962;2022-10-13T01:41:24;96604.59;;;2.30;83.72
23339;BME280;11841;49.368;20.962;2022-10-13T01:46:35;96597.84;;;2.37;83.79
23339;BME280;11841;49.368;20.962;2022-10-13T01:49:03;96597.16;;;2.35;83.23
23339;BME280;11841;49.368;20.962;2022-10-13T01:51:31;96599.53;;;2.29;83.32
23339;BME280;11841;49.368;20.962;2022-10-13T01:53:58;96592.91;;;2.25;83.31
23339;BME280;11841;49.368;20.962;2022-10-13T01:56:25;96591.69;;;2.19;83.53
23339;BME280;11841;49.368;20.962;2022-10-13T01:58:51;96593.91;;;2.14;84.17
23339;BME280;11841;49.368;20.962;2022-10-13T02:09:31;96588.38;;;2.17;83.64
23339;BME280;11841;49.368;20.962;2022-10-13T02:12:03;96586.06;;;2.14;83.85
23339;BME280;11841;49.368;20.962;2022-10-13T02:14:31;96581.28;;;2.10;83.85
23339;BME280;11841;49.368;20.962;2022-10-13T02:16:59;96576.88;;;2.10;83.59
23339;BME280;11841;49.368;20.962;2022-10-13T02:19:26;96580.16;;;2.12;83.80
23339;BME280;11841;49.368;20.962;2022-10-13T02:21:54;96571.66;;;2.10;84.13
23339;BME280;11841;49.368;20.962;2022-10-13T02:24:21;96576.88;;;2.10;83.72
23339;BME280;11841;49.368;20.962;2022-10-13T02:26:47;96573.56;;;2.08;83.55
23339;BME280;11841;49.368;20.962;2022-10-13T02:29:15;96579.75;;;2.07;83.83
23339;BME280;11841;49.368;20.962;2022-10-13T02:31:42;96566.00;;;2.05;83.60
23339;BME280;11841;49.368;20.962;2022-10-13T02:34:09;96575.13;;;2.01;83.74
23339;BME280;11841;49.368;20.962;2022-10-13T02:36:36;96576.91;;;2.01;83.60
23339;BME280;11841;49.368;20.962;2022-10-13T02:39:06;96579.38;;;2.02;83.89
23339;BME280;11841;49.368;20.962;2022-10-13T02:41:33;96573.84;;;2.05;83.80
23339;BME280;11841;49.368;20.962;2022-10-13T02:43:59;96576.88;;;2.10;83.48
23339;BME280;11841;49.368;20.962;2022-10-13T02:46:26;96569.97;;;2.09;83.53
23339;BME280;11841;49.368;20.962;2022-10-13T02:48:52;96582.38;;;2.07;83.29
23339;BME280;11841;49.368;20.962;2022-10-13T02:51:19;96582.13;;;2.10;83.74
23339;BME280;11841;49.368;20.962;2022-10-13T02:53:45;96586.38;;;2.11;83.78
23339;BME280;11841;49.368;20.962;2022-10-13T02:56:12;96584.28;;;2.15;83.69
23339;BME280;11841;49.368;20.962;2022-10-13T02:58:38;96571.34;;;2.13;83.59
23339;BME280;11841;49.368;20.962;2022-10-13T03:01:05;96567.06;;;2.12;84.01
23339;BME280;11841;49.368;20.962;2022-10-13T03:03:32;96573.97;;;2.13;83.85
23339;BME280;11841;49.368;20.962;2022-10-13T03:05:58;96567.22;;;2.11;83.78
23339;BME280;11841;49.368;20.962;2022-10-13T03:08:26;96570.81;;;2.10;84.15
23339;BME280;11841;49.368;20.962;2022-10-13T03:10:52;96574.25;;;2.10;84.14
23339;BME280;11841;49.368;20.962;2022-10-13T03:13:18;96567.75;;;2.14;84.28
23339;BME280;11841;49.368;20.962;2022-10-13T03:15:45;96574.66;;;2.15;84.43
23339;BME280;11841;49.368;20.962;2022-10-13T03:18:12;96569.13;;;2.18;84.47
23339;BME280;11841;49.368;20.962;2022-10-13T03:20:39;96576.25;;;2.26;85.01
23339;BME280;11841;49.368;20.962;2022-10-13T03:23:05;96567.13;;;2.30;84.65
23339;BME280;11841;49.368;20.962;2022-10-13T03:25:34;96569.31;;;2.34;84.62
23339;BME280;11841;49.368;20.962;2022-10-13T03:28:01;96565.28;;;2.40;84.50
23339;BME280;11841;49.368;20.962;2022-10-13T03:30:27;96568.75;;;2.40;84.99
23339;BME280;11841;49.368;20.962;2022-10-13T03:32:54;96573.38;;;2.46;84.67
23339;BME280;11841;49.368;20.962;2022-10-13T03:35:21;96569.50;;;2.51;84.18
23339;BME280;11841;49.368;20.962;2022-10-13T03:37:47;96573.09;;;2.49;84.16
23339;BME280;11841;49.368;20.962;2022-10-13T03:40:13;96571.44;;;2.48;84.17
23339;BME280;11841;49.368;20.962;2022-10-13T03:42:40;96566.81;;;2.42;84.44
23339;BME280;11841;49.368;20.962;2022-10-13T03:45:06;96567.91;;;2.40;84.86
23339;BME280;11841;49.368;20.962;2022-10-13T03:47:34;96574.13;;;2.39;85.36
23339;BME280;11841;49.368;20.962;2022-10-13T03:50:00;96572.03;;;2.42;86.10
23339;BME280;11841;49.368;20.962;2022-10-13T03:52:27;96574.06;;;2.48;85.96
23339;BME280;11841;49.368;20.962;2022-10-13T03:54:53;96570.84;;;2.55;86.18
23339;BME280;11841;49.368;20.962;2022-10-13T03:57:19;96566.97;;;2.59;86.05
23339;BME280;11841;49.368;20.962;2022-10-13T03:59:46;96561.44;;;2.62;85.91
23339;BME280;11841;49.368;20.962;2022-10-13T04:02:12;96564.06;;;2.62;85.57
23339;BME280;11841;49.368;20.962;2022-10-13T04:04:38;96568.34;;;2.63;85.46
23339;BME280;11841;49.368;20.962;2022-10-13T04:07:05;96565.03;;;2.61;85.18
23339;BME280;11841;49.368;20.962;2022-10-13T04:09:32;96566.44;;;2.55;85.89
23339;BME280;11841;49.368;20.962;2022-10-13T04:11:59;96559.88;;;2.51;86.10
23339;BME280;11841;49.368;20.962;2022-10-13T04:14:25;96550.50;;;2.48;86.28
23339;BME280;11841;49.368;20.962;2022-10-13T04:16:52;96557.25;;;2.51;86.51
23339;BME280;11841;49.368;20.962;2022-10-13T04:19:18;96565.34;;;2.58;87.10
23339;BME280;11841;49.368;20.962;2022-10-13T04:21:44;96565.72;;;2.63;87.21
23339;BME280;11841;49.368;20.962;2022-10-13T04:24:11;96563.63;;;2.66;86.93
23339;BME280;11841;49.368;20.962;2022-10-13T04:26:38;96564.97;;;2.70;86.41
23339;BME280;11841;49.368;20.962;2022-10-13T04:29:05;96562.19;;;2.72;87.09
23339;BME280;11841;49.368;20.962;2022-10-13T04:31:33;96556.31;;;2.70;87.71
23339;BME280;11841;49.368;20.962;2022-10-13T04:33:59;96553.41;;;2.73;88.37
23339;BME280;11841;49.368;20.962;2022-10-13T04:36:26;96551.16;;;2.78;88.14
23339;BME280;11841;49.368;20.962;2022-10-13T04:38:52;96551.16;;;2.78;87.93
23339;BME280;11841;49.368;20.962;2022-10-13T04:41:19;96548.38;;;2.79;87.67
23339;BME280;11841;49.368;20.962;2022-10-13T04:43:47;96556.69;;;2.75;89.19
23339;BME280;11841;49.368;20.962;2022-10-13T04:46:14;96560.28;;;2.74;88.62
23339;BME280;11841;49.368;20.962;2022-10-13T04:48:41;96552.56;;;2.72;89.01
23339;BME280;11841;49.368;20.962;2022-10-13T04:51:09;96556.69;;;2.75;88.79
23339;BME280;11841;49.368;20.962;2022-10-13T04:53:36;96551.16;;;2.78;88.17
23339;BME280;11841;49.368;20.962;2022-10-13T04:56:03;96556.09;;;2.81;88.25
23339;BME280;11841;49.368;20.962;2022-10-13T04:58:30;96548.22;;;2.81;88.23
23339;BME280;11841;49.368;20.962;2022-10-13T05:00:57;96551.69;;;2.81;88.73
23339;BME280;11841;49.368;20.962;2022-10-13T05:03:23;96554.16;;;2.83;88.50
23339;BME280;11841;49.368;20.962;2022-10-13T05:05:50;96552.88;;;2.87;88.42
23339;BME280;11841;49.368;20.962;2022-10-13T05:08:17;96558.25;;;2.85;87.85
23339;BME280;11841;49.368;20.962;2022-10-13T05:10:52;96560.75;;;2.87;88.75
23339;BME280;11841;49.368;20.962;2022-10-13T05:13:18;96566.63;;;2.89;88.40
23339;BME280;11841;49.368;20.962;2022-10-13T05:15:45;96568.84;;;2.93;88.52
23339;BME280;11841;49.368;20.962;2022-10-13T05:18:11;96559.03;;;2.95;88.28
23339;BME280;11841;49.368;20.962;2022-10-13T05:20:38;96559.16;;;2.94;88.94
23339;BME280;11841;49.368;20.962;2022-10-13T05:23:04;96560.44;;;2.90;89.54
23339;BME280;11841;49.368;20.962;2022-10-13T05:25:30;96555.50;;;2.87;89.40
23339;BME280;11841;49.368;20.962;2022-10-13T05:27:59;96559.75;;;2.88;89.69
23339;BME280;11841;49.368;20.962;2022-10-13T05:30:25;96554.06;;;2.92;88.87
23339;BME280;11841;49.368;20.962;2022-10-13T05:32:51;96550.50;;;2.93;89.24
23339;BME280;11841;49.368;20.962;2022-10-13T05:35:19;96557.81;;;2.90;89.04
23339;BME280;11841;49.368;20.962;2022-10-13T05:37:45;96553.47;;;2.81;89.07
23339;BME280;11841;49.368;20.962;2022-10-13T05:40:12;96557.22;;;2.78;89.67
23339;BME280;11841;49.368;20.962;2022-10-13T05:42:38;96552.63;;;2.80;89.95
23339;BME280;11841;49.368;20.962;2022-10-13T05:45:06;96555.63;;;2.85;89.34
23339;BME280;11841;49.368;20.962;2022-10-13T05:47:34;96555.19;;;2.90;89.12
23339;BME280;11841;49.368;20.962;2022-10-13T05:50:00;96554.59;;;2.96;88.69
23339;BME280;11841;49.368;20.962;2022-10-13T05:52:27;96554.28;;;2.99;89.23
23339;BME280;11841;49.368;20.962;2022-10-13T05:54:54;96555.19;;;2.90;88.56
23339;BME280;11841;49.368;20.962;2022-10-13T05:57:23;96558.03;;;2.79;89.48
23339;BME280;11841;49.368;20.962;2022-10-13T05:59:52;96561.75;;;2.59;89.78
23339;BME280;11841;49.368;20.962;2022-10-13T06:02:20;96555.59;;;2.50;90.22
23339;BME280;11841;49.368;20.962;2022-10-13T06:04:49;96564.31;;;2.41;91.33
23339;BME280;11841;49.368;20.962;2022-10-13T06:07:16;96557.28;;;2.41;91.41
23339;BME280;11841;49.368;20.962;2022-10-13T06:09:43;96568.06;;;2.38;92.02
23339;BME280;11841;49.368;20.962;2022-10-13T06:12:09;96566.91;;;2.23;92.16
23339;BME280;11841;49.368;20.962;2022-10-13T06:14:36;96567.47;;;2.17;92.65
23339;BME280;11841;49.368;20.962;2022-10-13T06:17:02;96574.06;;;2.21;92.55
23339;BME280;11841;49.368;20.962;2022-10-13T06:19:29;96565.78;;;2.26;93.23
23339;BME280;11841;49.368;20.962;2022-10-13T06:21:55;96574.28;;;2.37;92.71
23339;BME280;11841;49.368;20.962;2022-10-13T06:24:28;96578.38;;;2.40;92.80
23339;BME280;11841;49.368;20.962;2022-10-13T06:26:55;96571.16;;;2.52;92.76
23339;BME280;11841;49.368;20.962;2022-10-13T06:29:21;96571.25;;;2.60;91.86
23339;BME280;11841;49.368;20.962;2022-10-13T06:31:48;96570.34;;;2.69;91.83
23339;BME280;11841;49.368;20.962;2022-10-13T06:34:14;96571.13;;;2.79;91.49
23339;BME280;11841;49.368;20.962;2022-10-13T06:36:40;96570.91;;;2.90;91.59
23339;BME280;11841;49.368;20.962;2022-10-13T06:39:07;96562.31;;;2.97;90.99
23339;BME280;11841;49.368;20.962;2022-10-13T06:41:34;96564.50;;;3.02;91.52
23339;BME280;11841;49.368;20.962;2022-10-13T06:44:00;96565.44;;;3.01;91.49
23339;BME280;11841;49.368;20.962;2022-10-13T06:46:27;96569.41;;;3.05;91.43
23339;BME280;11841;49.368;20.962;2022-10-13T06:48:53;96565.00;;;3.05;91.59
23339;BME280;11841;49.368;20.962;2022-10-13T06:51:19;96557.16;;;3.05;91.28
23339;BME280;11841;49.368;20.962;2022-10-13T06:53:46;96557.69;;;3.09;91.04
23339;BME280;11841;49.368;20.962;2022-10-13T06:56:12;96552.81;;;3.14;91.19
23339;BME280;11841;49.368;20.962;2022-10-13T06:58:39;96549.50;;;3.12;91.74
23339;BME280;11841;49.368;20.962;2022-10-13T07:01:06;96554.00;;;3.19;91.24
23339;BME280;11841;49.368;20.962;2022-10-13T07:03:32;96554.19;;;3.26;91.65
23339;BME280;11841;49.368;20.962;2022-10-13T07:06:02;96547.69;;;3.30;91.48
23339;BME280;11841;49.368;20.962;2022-10-13T07:08:29;96547.09;;;3.36;91.46
23339;BME280;11841;49.368;20.962;2022-10-13T07:10:56;96550.09;;;3.41;91.56
23339;BME280;11841;49.368;20.962;2022-10-13T07:13:23;96555.03;;;3.44;91.87
23339;BME280;11841;49.368;20.962;2022-10-13T07:15:49;96556.44;;;3.38;92.27
23339;BME280;11841;49.368;20.962;2022-10-13T07:18:15;96545.69;;;3.24;93.03
23339;BME280;11841;49.368;20.962;2022-10-13T07:20:42;96557.22;;;3.13;93.67
23339;BME280;11841;49.368;20.962;2022-10-13T07:23:08;96550.94;;;3.06;94.57
23339;BME280;11841;49.368;20.962;2022-10-13T07:25:35;96550.56;;;3.01;94.66
23339;BME280;11841;49.368;20.962;2022-10-13T07:28:02;96550.88;;;2.98;95.21
23339;BME280;11841;49.368;20.962;2022-10-13T07:30:29;96556.25;;;2.97;96.51
23339;BME280;11841;49.368;20.962;2022-10-13T07:32:55;96544.34;;;3.02;96.75
23339;BME280;11841;49.368;20.962;2022-10-13T07:35:21;96548.31;;;3.06;96.72
23339;BME280;11841;49.368;20.962;2022-10-13T07:37:55;96544.84;;;3.06;97.22
23339;BME280;11841;49.368;20.962;2022-10-13T07:40:22;96545.31;;;3.19;97.00
23339;BME280;11841;49.368;20.962;2022-10-13T07:42:48;96540.28;;;3.25;97.98
23339;BME280;11841;49.368;20.962;2022-10-13T07:45:15;96537.84;;;3.24;97.86
23339;BME280;11841;49.368;20.962;2022-10-13T07:47:41;96539.84;;;3.30;97.98
23339;BME280;11841;49.368;20.962;2022-10-13T07:50:08;96533.31;;;3.34;97.87
23339;BME280;11841;49.368;20.962;2022-10-13T07:52:35;96536.50;;;3.45;98.63
23339;BME280;11841;49.368;20.962;2022-10-13T07:55:02;96529.22;;;3.57;98.69
23339;BME280;11841;49.368;20.962;2022-10-13T07:57:28;96527.81;;;3.70;97.48
23339;BME280;11841;49.368;20.962;2022-10-13T07:59:55;96517.88;;;3.82;97.13
23339;BME280;11841;49.368;20.962;2022-10-13T08:02:21;96518.31;;;3.95;97.26
23339;BME280;11841;49.368;20.962;2022-10-13T08:04:48;96519.28;;;4.02;96.76
23339;BME280;11841;49.368;20.962;2022-10-13T08:07:14;96520.31;;;4.09;97.05
23339;BME280;11841;49.368;20.962;2022-10-13T08:09:42;96514.13;;;4.10;98.29
23339;BME280;11841;49.368;20.962;2022-10-13T08:12:09;96511.16;;;4.13;99.22
23339;BME280;11841;49.368;20.962;2022-10-13T08:14:36;96508.88;;;4.18;99.86
23339;BME280;11841;49.368;20.962;2022-10-13T08:17:02;96502.19;;;4.24;99.95
23339;BME280;11841;49.368;20.962;2022-10-13T08:19:29;96496.81;;;4.33;99.92
23339;BME280;11841;49.368;20.962;2022-10-13T08:21:55;96504.41;;;4.44;99.11
23339;BME280;11841;49.368;20.962;2022-10-13T08:24:25;96498.50;;;4.50;99.11
23339;BME280;11841;49.368;20.962;2022-10-13T08:26:52;96494.41;;;4.56;98.78
23339;BME280;11841;49.368;20.962;2022-10-13T08:29:18;96483.41;;;4.60;98.43
23339;BME280;11841;49.368;20.962;2022-10-13T08:31:48;96494.94;;;4.67;98.22
23339;BME280;11841;49.368;20.962;2022-10-13T08:34:20;96488.03;;;4.74;98.36
23339;BME280;11841;49.368;20.962;2022-10-13T08:36:47;96480.34;;;4.81;98.52
23339;BME280;11841;49.368;20.962;2022-10-13T08:39:13;96481.31;;;4.88;98.40
23339;BME280;11841;49.368;20.962;2022-10-13T08:41:41;96478.69;;;4.96;98.56
23339;BME280;11841;49.368;20.962;2022-10-13T08:44:15;96476.91;;;5.05;98.88
23339;BME280;11841;49.368;20.962;2022-10-13T08:47:07;96476.75;;;5.14;99.15
23339;BME280;11841;49.368;20.962;2022-10-13T08:49:36;96468.84;;;5.22;99.79
23339;BME280;11841;49.368;20.962;2022-10-13T08:52:03;96461.78;;;5.31;99.74
23339;BME280;11841;49.368;20.962;2022-10-13T08:54:31;96459.63;;;5.42;100.00
23339;BME280;11841;49.368;20.962;2022-10-13T08:56:57;96460.94;;;5.54;100.00
23339;BME280;11841;49.368;20.962;2022-10-13T08:59:24;96452.84;;;5.64;100.00
23339;BME280;11841;49.368;20.962;2022-10-13T09:01:52;96463.03;;;5.75;100.00
23339;BME280;11841;49.368;20.962;2022-10-13T09:04:32;96453.16;;;5.85;100.00
23339;BME280;11841;49.368;20.962;2022-10-13T09:09:27;96448.91;;;6.14;100.00
23339;BME280;11841;49.368;20.962;2022-10-13T09:11:54;96441.47;;;6.26;100.00
23339;BME280;11841;49.368;20.962;2022-10-13T09:14:25;96442.69;;;6.38;100.00
23339;BME280;11841;49.368;20.962;2022-10-13T09:16:53;96439.31;;;6.52;100.00
23339;BME280;11841;49.368;20.962;2022-10-13T09:19:30;96432.31;;;6.67;100.00
23339;BME280;11841;49.368;20.962;2022-10-13T09:22:14;96441.75;;;6.84;100.00
23339;BME280;11841;49.368;20.962;2022-10-13T09:24:41;96435.34;;;7.01;100.00
23339;BME280;11841;49.368;20.962;2022-10-13T09:27:13;96432.59;;;7.17;100.00
23339;BME280;11841;49.368;20.962;2022-10-13T09:29:40;96430.81;;;7.32;100.00
23339;BME280;11841;49.368;20.962;2022-10-13T09:34:39;96438.13;;;7.60;100.00
23339;BME280;11841;49.368;20.962;2022-10-13T09:37:15;96421.13;;;7.77;100.00
23339;BME280;11841;49.368;20.962;2022-10-13T09:39:42;96434.13;;;7.93;100.00
23339;BME280;11841;49.368;20.962;2022-10-13T09:42:19;96428.84;;;8.07;100.00
23339;BME280;11841;49.368;20.962;2022-10-13T09:44:48;96428.81;;;8.22;100.00
23339;BME280;11841;49.368;20.962;2022-10-13T09:47:21;96432.28;;;8.37;100.00
23339;BME280;11841;49.368;20.962;2022-10-13T09:52:32;96425.75;;;8.69;100.00
23339;BME280;11841;49.368;20.962;2022-10-13T09:54:59;96417.84;;;8.96;100.00
23339;BME280;11841;49.368;20.962;2022-10-13T09:57:42;96416.59;;;9.13;99.96
23339;BME280;11841;49.368;20.962;2022-10-13T10:00:21;96418.31;;;9.21;100.00
23339;BME280;11841;49.368;20.962;2022-10-13T10:07:44;96408.34;;;9.50;99.19
23339;BME280;11841;49.368;20.962;2022-10-13T10:10:21;96399.94;;;9.74;96.81
23339;BME280;11841;49.368;20.962;2022-10-13T10:12:50;96395.94;;;9.85;96.88
23339;BME280;11841;49.368;20.962;2022-10-13T10:15:19;96392.94;;;9.95;98.26
23339;BME280;11841;49.368;20.962;2022-10-13T10:17:48;96383.81;;;10.04;99.15
23339;BME280;11841;49.368;20.962;2022-10-13T10:23:04;96374.56;;;10.27;98.46
23339;BME280;11841;49.368;20.962;2022-10-13T10:25:49;96372.22;;;10.52;95.51
23339;BME280;11841;49.368;20.962;2022-10-13T10:30:54;96367.16;;;10.89;95.16
23339;BME280;11841;49.368;20.962;2022-10-13T10:33:29;96374.94;;;11.17;92.39
23339;BME280;11841;49.368;20.962;2022-10-13T10:36:05;96366.56;;;11.40;91.71
23339;BME280;11841;49.368;20.962;2022-10-13T10:38:37;96359.81;;;11.50;91.98
23339;BME280;11841;49.368;20.962;2022-10-13T10:46:25;96348.53;;;11.87;89.62
23339;BME280;11841;49.368;20.962;2022-10-13T10:49:12;96343.34;;;12.05;85.75
23339;BME280;11841;49.368;20.962;2022-10-13T10:51:41;96339.78;;;12.25;87.97
23339;BME280;11841;49.368;20.962;2022-10-13T10:54:16;96333.19;;;12.34;87.37
23339;BME280;11841;49.368;20.962;2022-10-13T10:56:48;96327.13;;;12.58;85.87
23339;BME280;11841;49.368;20.962;2022-10-13T11:04:46;96323.47;;;12.83;85.74
23339;BME280;11841;49.368;20.962;2022-10-13T11:14:45;96316.19;;;13.28;83.91
23339;BME280;11841;49.368;20.962;2022-10-13T11:17:17;96309.13;;;13.40;81.53
23339;BME280;11841;49.368;20.962;2022-10-13T11:19:44;96315.34;;;13.52;78.90
23339;BME280;11841;49.368;20.962;2022-10-13T11:22:12;96309.81;;;13.72;78.87
23339;BME280;11841;49.368;20.962;2022-10-13T11:43:50;96284.81;;;14.80;70.43
23339;BME280;11841;49.368;20.962;2022-10-13T11:46:23;96279.03;;;14.83;71.28
23339;BME280;11841;49.368;20.962;2022-10-13T11:56:48;96271.88;;;15.18;69.77
23339;BME280;11841;49.368;20.962;2022-10-13T11:59:22;96273.53;;;15.30;67.12
23339;BME280;11841;49.368;20.962;2022-10-13T12:01:53;96274.38;;;15.42;67.03
23339;BME280;11841;49.368;20.962;2022-10-13T12:04:20;96265.41;;;15.48;65.20
23339;BME280;11841;49.368;20.962;2022-10-13T12:06:52;96267.97;;;15.55;67.14
23339;BME280;11841;49.368;20.962;2022-10-13T12:09:19;96259.22;;;15.59;67.77
23339;BME280;11841;49.368;20.962;2022-10-13T12:11:46;96259.91;;;15.66;67.30
23339;BME280;11841;49.368;20.962;2022-10-13T12:14:28;96260.59;;;15.73;64.56
23339;BME280;11841;49.368;20.962;2022-10-13T12:16:56;96261.09;;;15.70;62.11
23339;BME280;11841;49.368;20.962;2022-10-13T12:19:24;96251.22;;;15.71;62.25
23339;BME280;11841;49.368;20.962;2022-10-13T12:21:52;96253.31;;;15.69;61.62
23339;BME280;11841;49.368;20.962;2022-10-13T12:24:20;96252.00;;;15.71;61.87
23339;BME280;11841;49.368;20.962;2022-10-13T12:26:47;96253.41;;;15.74;61.25
23339;BME280;11841;49.368;20.962;2022-10-13T12:29:14;96248.78;;;15.69;61.43
23339;BME280;11841;49.368;20.962;2022-10-13T12:31:46;96251.22;;;15.71;61.90
23339;BME280;11841;49.368;20.962;2022-10-13T12:34:29;96241.66;;;15.75;61.02
23339;BME280;11841;49.368;20.962;2022-10-13T12:37:02;96235.63;;;15.80;60.37
23339;BME280;11841;49.368;20.962;2022-10-13T12:39:30;96232.94;;;15.80;60.52
23339;BME280;11841;49.368;20.962;2022-10-13T12:41:58;96232.72;;;15.81;60.10
23339;BME280;11841;49.368;20.962;2022-10-13T12:44:27;96225.47;;;15.82;60.39
23339;BME280;11841;49.368;20.962;2022-10-13T12:46:58;96232.81;;;15.86;59.88
23339;BME280;11841;49.368;20.962;2022-10-13T12:49:26;96225.38;;;15.88;59.92
23339;BME280;11841;49.368;20.962;2022-10-13T12:51:53;96225.13;;;15.90;60.30
23339;BME280;11841;49.368;20.962;2022-10-13T12:54:26;96221.50;;;15.96;59.65
23339;BME280;11841;49.368;20.962;2022-10-13T12:56:55;96222.66;;;16.00;59.89
23339;BME280;11841;49.368;20.962;2022-10-13T12:59:23;96222.50;;;16.06;58.56
23339;BME280;11841;49.368;20.962;2022-10-13T13:01:57;96217.16;;;16.06;58.96
23339;BME280;11841;49.368;20.962;2022-10-13T13:04:42;96209.97;;;16.07;59.85
23339;BME280;11841;49.368;20.962;2022-10-13T13:07:26;96212.97;;;16.10;59.59
23339;BME280;11841;49.368;20.962;2022-10-13T13:10:13;96211.91;;;16.11;59.63
23339;BME280;11841;49.368;20.962;2022-10-13T13:12:40;96205.16;;;16.09;59.71
23339;BME280;11841;49.368;20.962;2022-10-13T13:17:52;96207.28;;;16.07;61.02
23339;BME280;11841;49.368;20.962;2022-10-13T13:20:25;96209.72;;;16.08;60.40
23339;BME280;11841;49.368;20.962;2022-10-13T13:22:52;96207.47;;;16.17;59.88
23339;BME280;11841;49.368;20.962;2022-10-13T13:25:19;96195.22;;;16.21;59.87
23339;BME280;11841;49.368;20.962;2022-10-13T13:27:46;96208.00;;;16.30;59.74
23339;BME280;11841;49.368;20.962;2022-10-13T13:30:14;96193.22;;;16.28;57.01
23339;BME280;11841;49.368;20.962;2022-10-13T13:32:41;96204.00;;;16.33;57.02
23339;BME280;11841;49.368;20.962;2022-10-13T13:35:08;96198.91;;;16.31;59.17
23339;BME280;11841;49.368;20.962;2022-10-13T13:37:38;96197.75;;;16.27;56.42
23339;BME280;11841;49.368;20.962;2022-10-13T13:40:05;96197.28;;;16.30;56.95
23339;BME280;11841;49.368;20.962;2022-10-13T13:42:32;96199.06;;;16.25;58.72
23339;BME280;11841;49.368;20.962;2022-10-13T13:44:58;96192.53;;;16.21;59.27
23339;BME280;11841;49.368;20.962;2022-10-13T13:47:26;96205.81;;;16.16;59.98
23339;BME280;11841;49.368;20.962;2022-10-13T13:49:53;96194.69;;;16.07;59.47
23339;BME280;11841;49.368;20.962;2022-10-13T13:52:21;96199.72;;;16.04;60.49
23339;BME280;11841;49.368;20.962;2022-10-13T13:54:48;96194.28;;;15.99;61.71
23339;BME280;11841;49.368;20.962;2022-10-13T13:57:16;96194.75;;;15.96;62.73
23339;BME280;11841;49.368;20.962;2022-10-13T13:59:43;96199.28;;;15.95;63.41
23339;BME280;11841;49.368;20.962;2022-10-13T14:02:12;96198.72;;;15.93;64.06
23339;BME280;11841;49.368;20.962;2022-10-13T14:04:39;96210.69;;;15.91;63.32
23339;BME280;11841;49.368;20.962;2022-10-13T14:07:05;96200.72;;;15.86;63.91
23339;BME280;11841;49.368;20.962;2022-10-13T14:09:32;96210.25;;;15.82;63.84
23339;BME280;11841;49.368;20.962;2022-10-13T14:11:58;96207.97;;;15.74;64.27
23339;BME280;11841;49.368;20.962;2022-10-13T14:14:25;96205.19;;;15.69;64.90
23339;BME280;11841;49.368;20.962;2022-10-13T14:16:51;96203.53;;;15.68;65.37
23339;BME280;11841;49.368;20.962;2022-10-13T14:19:18;96207.28;;;15.67;65.97
23339;BME280;11841;49.368;20.962;2022-10-13T14:21:44;96209.84;;;15.62;66.56
23339;BME280;11841;49.368;20.962;2022-10-13T14:24:11;96206.59;;;15.60;67.17
23339;BME280;11841;49.368;20.962;2022-10-13T14:26:37;96213.91;;;15.53;66.92
23339;BME280;11841;49.368;20.962;2022-10-13T14:29:04;96220.31;;;15.52;67.77
23339;BME280;11841;49.368;20.962;2022-10-13T14:31:30;96211.38;;;15.46;67.83
23339;BME280;11841;49.368;20.962;2022-10-13T14:33:57;96212.19;;;15.47;69.06
23339;BME280;11841;49.368;20.962;2022-10-13T14:36:23;96214.75;;;15.42;68.69